Time;durP1;ratioP1;P1;durP2;ratioP2;P2;SDS_P1;SDS_P2;PMS_P1;PMS_P2;Temp;Humidity;BMP_temperature;BMP_pressure;BME280_temperature;BME280_humidity;BME280_pressure;Samples;Min_cycle;Max_cycle;Signal;HPM_P1;HPM_P2
2021/04/03 00:01:29;;;;;;;26.93;4.00;;;4.90;99.90;;;;;;5028903;28;20060;-59
2021/04/03 00:03:54;;;;;;;24.58;3.83;;;4.90;99.90;;;;;;5044482;28;20119;-59
2021/04/03 00:06:20;;;;;;;20.70;3.50;;;4.90;99.90;;;;;;5029329;28;20489;-59
2021/04/03 00:08:45;;;;;;;24.93;4.53;;;4.90;99.90;;;;;;5029269;28;20345;-59
2021/04/03 00:11:12;;;;;;;24.40;4.90;;;4.90;99.90;;;;;;5028776;28;20099;-60
2021/04/03 00:13:41;;;;;;;27.08;3.80;;;4.90;99.90;;;;;;5040361;28;20045;-59
2021/04/03 00:16:07;;;;;;;26.98;3.55;;;4.90;99.90;;;;;;5048895;28;20072;-59
2021/04/03 00:18:33;;;;;;;23.92;3.95;;;4.90;99.90;;;;;;5048717;28;20053;-61
2021/04/03 00:20:59;;;;;;;27.30;4.27;;;4.90;99.90;;;;;;5048906;28;20057;-59
2021/04/03 00:23:25;;;;;;;25.58;3.78;;;4.90;99.90;;;;;;5048537;28;20368;-61
2021/04/03 00:25:51;;;;;;;37.70;5.03;;;4.90;99.90;;;;;;5048876;28;20044;-60
2021/04/03 00:28:18;;;;;;;21.85;4.18;;;4.90;99.90;;;;;;5048630;28;20238;-59
2021/04/03 00:30:44;;;;;;;23.23;3.70;;;5.00;99.90;;;;;;5048578;28;20527;-59
2021/04/03 00:33:10;;;;;;;24.47;3.90;;;4.90;99.90;;;;;;5042263;28;20155;-58
2021/04/03 00:35:41;;;;;;;30.53;4.03;;;4.90;99.90;;;;;;5050981;28;20056;-60
2021/04/03 00:38:10;;;;;;;26.02;3.63;;;4.80;99.90;;;;;;5028451;28;20121;-61
2021/04/03 00:40:42;;;;;;;23.98;3.72;;;4.80;99.90;;;;;;5043589;28;20698;-59
2021/04/03 00:43:13;;;;;;;25.60;3.75;;;4.70;99.90;;;;;;5028709;28;20072;-59
2021/04/03 00:45:40;;;;;;;21.70;4.10;;;4.70;99.90;;;;;;5026629;28;20045;-59
2021/04/03 00:48:06;;;;;;;26.35;4.18;;;4.70;99.90;;;;;;5028610;28;20116;-58
2021/04/03 00:50:38;;;;;;;25.50;3.80;;;4.60;99.90;;;;;;5028218;28;20056;-59
2021/04/03 00:53:10;;;;;;;23.40;4.13;;;4.70;99.90;;;;;;5027880;28;20132;-60
2021/04/03 00:55:36;;;;;;;36.25;4.53;;;4.60;99.90;;;;;;5028163;28;20512;-59
2021/04/03 00:58:03;;;;;;;30.67;4.45;;;4.70;99.90;;;;;;5028085;28;20123;-60
2021/04/03 01:00:30;;;;;;;34.05;5.55;;;4.70;99.90;;;;;;5043354;28;20045;-59
2021/04/03 01:02:55;;;;;;;30.13;4.85;;;4.60;99.90;;;;;;5028148;28;20145;-60
2021/04/03 01:05:26;;;;;;;39.13;4.80;;;4.60;99.90;;;;;;5027927;28;20037;-59
2021/04/03 01:07:52;;;;;;;28.75;4.55;;;4.50;99.90;;;;;;5028138;28;20053;-59
2021/04/03 01:10:29;;;;;;;35.30;4.82;;;4.40;99.90;;;;;;5027637;28;20045;-58
2021/04/03 01:13:22;;;;;;;34.28;4.72;;;4.40;99.90;;;;;;5027791;28;20472;-58
2021/04/03 01:16:20;;;;;;;33.63;5.32;;;4.40;99.90;;;;;;5027463;28;20049;-59
2021/04/03 01:18:56;;;;;;;30.52;4.63;;;4.40;99.90;;;;;;5027559;28;20445;-60
2021/04/03 01:21:57;;;;;;;47.30;6.13;;;4.50;99.90;;;;;;5027847;28;20104;-59
2021/04/03 01:25:01;;;;;;;28.63;5.30;;;4.40;99.90;;;;;;5027668;28;20064;-59
2021/04/03 01:27:27;;;;;;;34.90;5.57;;;4.40;99.90;;;;;;5027490;28;20346;-58
2021/04/03 01:30:05;;;;;;;42.88;5.13;;;4.40;99.90;;;;;;5027548;28;20117;-59
2021/04/03 01:32:55;;;;;;;31.27;5.00;;;4.40;99.90;;;;;;5027628;28;20115;-59
2021/04/03 01:35:34;;;;;;;41.97;5.00;;;4.30;99.90;;;;;;5027692;28;20069;-59
2021/04/03 01:38:29;;;;;;;42.72;5.93;;;4.30;99.90;;;;;;5027496;28;20442;-58
2021/04/03 01:40:57;;;;;;;45.95;6.03;;;4.20;99.90;;;;;;5027504;28;20049;-60
2021/04/03 01:43:27;;;;;;;49.45;5.70;;;4.20;99.90;;;;;;5027417;28;20133;-58
2021/04/03 01:45:55;;;;;;;44.70;6.03;;;4.20;99.90;;;;;;5027462;28;20060;-59
2021/04/03 01:48:22;;;;;;;34.00;5.22;;;4.20;99.90;;;;;;5027597;28;20073;-58
2021/04/03 01:50:49;;;;;;;56.88;6.97;;;4.20;99.90;;;;;;5027331;28;20050;-59
2021/04/03 01:53:17;;;;;;;34.40;5.50;;;4.20;99.90;;;;;;5027138;28;20107;-60
2021/04/03 01:55:44;;;;;;;40.10;6.38;;;4.20;99.90;;;;;;5042491;28;20061;-60
2021/04/03 01:58:11;;;;;;;37.00;5.55;;;4.20;99.90;;;;;;5027491;28;20045;-58
2021/04/03 02:00:39;;;;;;;48.07;5.63;;;4.10;99.90;;;;;;5027009;28;20125;-60
2021/04/03 02:03:05;;;;;;;46.78;7.10;;;4.20;99.90;;;;;;5027397;28;20083;-58
2021/04/03 02:05:33;;;;;;;45.65;6.35;;;4.20;99.90;;;;;;5027038;28;20473;-59
2021/04/03 02:08:00;;;;;;;42.30;5.50;;;4.10;99.90;;;;;;5027199;28;20041;-58
2021/04/03 02:10:28;;;;;;;49.30;6.65;;;4.10;99.90;;;;;;5026646;28;20045;-59
2021/04/03 02:12:54;;;;;;;53.42;6.78;;;4.10;99.90;;;;;;5027311;28;20504;-58
2021/04/03 02:15:23;;;;;;;43.85;6.90;;;4.00;99.90;;;;;;5027369;28;20180;-60
2021/04/03 02:17:50;;;;;;;47.00;6.43;;;4.00;99.90;;;;;;5027004;28;20057;-59
2021/04/03 02:20:17;;;;;;;48.40;6.10;;;4.00;99.90;;;;;;5027136;28;20097;-59
2021/04/03 02:22:43;;;;;;;43.05;6.45;;;4.00;99.90;;;;;;5027276;28;20145;-58
2021/04/03 02:25:13;;;;;;;41.50;7.40;;;4.10;99.90;;;;;;5027389;28;20109;-59
2021/04/03 02:27:40;;;;;;;42.03;6.95;;;4.20;99.90;;;;;;5029981;28;20041;-58
2021/04/03 02:30:15;;;;;;;47.97;7.07;;;4.10;99.90;;;;;;5030864;28;20415;-60
2021/04/03 02:33:01;;;;;;;57.95;7.32;;;4.30;99.90;;;;;;5030808;28;20092;-60
2021/04/03 02:35:29;;;;;;;45.08;7.70;;;4.30;99.90;;;;;;5030424;28;20057;-60
2021/04/03 02:38:00;;;;;;;46.55;5.95;;;4.20;99.90;;;;;;5030858;28;20109;-59
2021/04/03 02:40:29;;;;;;;47.15;6.97;;;4.30;99.90;;;;;;5030480;28;20038;-59
2021/04/03 02:43:25;;;;;;;46.03;7.68;;;4.30;99.90;;;;;;5030387;28;20054;-60
2021/04/03 02:46:13;;;;;;;47.20;7.65;;;4.30;99.90;;;;;;5030472;28;20045;-58
2021/04/03 02:48:43;;;;;;;47.05;6.65;;;4.30;99.90;;;;;;5030595;28;20248;-60
2021/04/03 02:51:10;;;;;;;53.90;7.78;;;4.20;99.90;;;;;;5030307;28;20512;-58
2021/04/03 02:53:37;;;;;;;48.05;6.55;;;4.30;99.90;;;;;;5030489;28;20072;-60
2021/04/03 02:56:06;;;;;;;58.67;7.43;;;4.20;99.90;;;;;;5030402;28;20068;-59
2021/04/03 02:58:35;;;;;;;51.15;7.85;;;4.30;99.90;;;;;;5028918;28;20062;-60
2021/04/03 03:01:02;;;;;;;44.90;7.25;;;4.30;99.90;;;;;;5030347;28;20042;-58
2021/04/03 03:03:32;;;;;;;59.47;8.32;;;4.40;99.90;;;;;;5029983;28;20089;-59
2021/04/03 03:05:59;;;;;;;50.83;7.70;;;4.40;99.90;;;;;;5030232;28;20172;-59
2021/04/03 03:08:27;;;;;;;57.95;8.20;;;4.50;99.90;;;;;;5030090;28;20423;-59
2021/04/03 03:10:55;;;;;;;55.42;8.73;;;4.50;99.90;;;;;;5030110;28;20052;-60
2021/04/03 03:13:21;;;;;;;51.15;8.77;;;4.50;99.90;;;;;;5030361;28;20053;-58
2021/04/03 03:15:48;;;;;;;58.47;8.95;;;4.60;99.90;;;;;;5030050;28;20115;-60
2021/04/03 03:18:15;;;;;;;46.17;7.32;;;4.60;99.90;;;;;;5029888;28;20822;-58
2021/04/03 03:20:43;;;;;;;49.13;8.30;;;4.60;99.90;;;;;;5029838;28;20049;-60
2021/04/03 03:23:11;;;;;;;63.85;7.95;;;4.60;99.90;;;;;;5029816;28;20050;-59
2021/04/03 03:25:38;;;;;;;60.50;7.55;;;4.60;99.90;;;;;;5029240;28;20156;-60
2021/04/03 03:28:04;;;;;;;66.03;8.38;;;4.60;99.90;;;;;;5029737;28;20109;-59
2021/04/03 03:30:30;;;;;;;55.83;7.75;;;4.60;99.90;;;;;;5029860;28;20049;-58
2021/04/03 03:32:56;;;;;;;50.17;8.30;;;4.70;99.90;;;;;;5029586;28;20128;-58
2021/04/03 03:35:22;;;;;;;59.97;8.93;;;4.70;99.90;;;;;;5029243;28;20461;-58
2021/04/03 03:37:49;;;;;;;52.85;6.80;;;4.70;99.90;;;;;;5028964;28;20084;-59
2021/04/03 03:40:16;;;;;;;56.92;8.18;;;4.70;99.90;;;;;;5029553;28;20160;-58
2021/04/03 03:42:42;;;;;;;57.97;7.78;;;4.60;99.90;;;;;;5029126;28;20091;-59
2021/04/03 03:45:12;;;;;;;60.75;7.80;;;4.70;99.90;;;;;;5029371;28;20053;-58
2021/04/03 03:47:38;;;;;;;53.60;7.72;;;4.70;99.90;;;;;;5027860;28;20091;-60
2021/04/03 03:50:05;;;;;;;60.17;7.97;;;4.70;99.90;;;;;;5044470;28;20045;-59
2021/04/03 03:52:31;;;;;;;64.38;8.48;;;4.70;99.90;;;;;;5028983;28;20049;-59
2021/04/03 03:54:57;;;;;;;54.10;7.20;;;4.70;99.90;;;;;;5029115;28;20180;-59
2021/04/03 03:57:23;;;;;;;48.20;6.93;;;4.70;99.90;;;;;;5029243;28;20054;-59
2021/04/03 03:59:49;;;;;;;62.42;8.27;;;4.70;99.90;;;;;;5029042;28;20049;-59
2021/04/03 04:02:14;;;;;;;68.63;8.33;;;4.70;99.90;;;;;;5028791;28;20045;-59
2021/04/03 04:04:40;;;;;;;67.60;8.63;;;4.60;99.90;;;;;;5028934;28;20048;-60
2021/04/03 04:07:06;;;;;;;54.87;8.17;;;4.70;99.90;;;;;;5029207;28;20462;-59
2021/04/03 04:09:32;;;;;;;63.97;9.53;;;4.60;99.90;;;;;;5028861;28;20041;-60
2021/04/03 04:12:06;;;;;;;77.72;9.30;;;4.70;99.90;;;;;;5028816;28;20137;-60
2021/04/03 04:14:33;;;;;;;61.13;8.65;;;4.70;99.90;;;;;;5028992;28;20119;-60
2021/04/03 04:17:01;;;;;;;57.53;9.18;;;4.60;99.90;;;;;;5027601;28;20053;-58
2021/04/03 04:19:26;;;;;;;69.68;9.73;;;4.60;99.90;;;;;;5028846;28;20053;-60
2021/04/03 04:21:53;;;;;;;66.17;8.80;;;4.60;99.90;;;;;;5032297;28;20041;-60
2021/04/03 04:24:19;;;;;;;73.72;9.18;;;4.60;99.90;;;;;;5045263;28;20064;-60
2021/04/03 04:26:45;;;;;;;67.70;10.87;;;4.60;99.90;;;;;;5048079;28;20046;-60
2021/04/03 04:29:11;;;;;;;71.72;8.77;;;4.60;99.90;;;;;;5048434;28;20045;-58
2021/04/03 04:31:37;;;;;;;58.50;8.00;;;4.60;99.90;;;;;;5048204;28;20396;-60
2021/04/03 04:34:03;;;;;;;70.77;9.67;;;4.50;99.90;;;;;;5047676;28;20443;-59
2021/04/03 04:36:28;;;;;;;65.68;9.13;;;4.60;99.90;;;;;;5027883;28;20049;-59
2021/04/03 04:38:54;;;;;;;61.50;8.63;;;4.50;99.90;;;;;;5028332;28;20404;-59
2021/04/03 04:41:20;;;;;;;61.73;11.27;;;4.60;99.90;;;;;;5043527;28;20212;-59
2021/04/03 04:43:46;;;;;;;71.77;10.83;;;4.60;99.90;;;;;;5028310;28;20076;-59
2021/04/03 04:46:11;;;;;;;54.13;7.93;;;4.60;99.90;;;;;;5027737;28;20045;-60
2021/04/03 04:48:37;;;;;;;66.00;8.83;;;4.60;99.90;;;;;;5027825;28;20442;-58
2021/04/03 04:51:04;;;;;;;60.87;8.47;;;4.70;99.90;;;;;;5027726;28;20267;-59
2021/04/03 04:53:29;;;;;;;65.85;8.57;;;4.60;99.90;;;;;;5027762;28;20049;-59
2021/04/03 04:55:55;;;;;;;64.47;9.17;;;4.70;99.90;;;;;;5027320;28;20140;-59
2021/04/03 04:58:21;;;;;;;71.70;9.53;;;4.70;99.90;;;;;;5027498;28;20052;-59
2021/04/03 05:00:47;;;;;;;58.92;8.88;;;4.80;99.90;;;;;;5042662;28;20076;-59
2021/04/03 05:03:15;;;;;;;63.40;9.57;;;4.80;99.90;;;;;;5027824;28;20055;-61
2021/04/03 05:05:41;;;;;;;63.27;9.27;;;4.80;99.90;;;;;;5027684;28;20121;-60
2021/04/03 05:08:07;;;;;;;45.60;8.03;;;4.90;99.90;;;;;;5028461;28;20049;-58
2021/04/03 05:10:33;;;;;;;54.23;8.27;;;4.90;99.90;;;;;;5028052;28;20060;-59
2021/04/03 05:13:03;;;;;;;67.63;8.83;;;4.90;99.90;;;;;;5027892;28;20145;-61
2021/04/03 05:15:29;;;;;;;71.05;9.35;;;4.90;99.90;;;;;;5027988;28;20144;-60
2021/04/03 05:17:55;;;;;;;69.35;9.43;;;4.90;99.90;;;;;;5027659;28;20468;-59
2021/04/03 05:20:21;;;;;;;72.72;10.38;;;5.00;99.90;;;;;;5027913;28;20641;-59
2021/04/03 05:22:47;;;;;;;70.00;9.30;;;5.00;99.90;;;;;;5027337;28;20528;-59
2021/04/03 05:25:13;;;;;;;63.40;9.57;;;5.00;99.90;;;;;;5027420;28;20053;-60
2021/04/03 05:27:40;;;;;;;58.13;8.85;;;5.10;99.90;;;;;;5029589;28;20045;-59
2021/04/03 05:30:07;;;;;;;56.72;8.07;;;5.10;99.90;;;;;;5047669;28;20041;-59
2021/04/03 05:32:33;;;;;;;60.85;9.77;;;5.10;99.90;;;;;;5047366;28;20089;-59
2021/04/03 05:34:59;;;;;;;58.65;9.38;;;5.10;99.90;;;;;;5048006;28;20040;-59
2021/04/03 05:37:25;;;;;;;62.20;10.18;;;5.00;99.90;;;;;;5046073;28;20068;-61
2021/04/03 05:39:51;;;;;;;50.67;8.53;;;5.10;99.90;;;;;;5044793;28;20464;-58
2021/04/03 05:42:18;;;;;;;59.93;9.63;;;5.20;99.90;;;;;;5047802;28;20809;-59
2021/04/03 05:44:45;;;;;;;54.47;7.80;;;5.20;99.90;;;;;;5047299;28;20098;-60
2021/04/03 05:47:12;;;;;;;60.88;8.52;;;5.20;99.90;;;;;;5047920;28;20045;-60
2021/04/03 05:49:38;;;;;;;66.38;8.60;;;5.30;99.90;;;;;;5047526;28;20122;-59
2021/04/03 05:52:05;;;;;;;59.63;9.40;;;5.30;99.90;;;;;;5047814;28;20147;-60
2021/04/03 05:54:31;;;;;;;69.85;9.35;;;5.40;99.90;;;;;;5047349;28;20135;-59
2021/04/03 05:56:57;;;;;;;64.80;8.57;;;5.40;99.90;;;;;;5047788;28;20124;-59
2021/04/03 05:59:22;;;;;;;49.03;7.07;;;5.50;99.90;;;;;;5047538;28;20044;-60
2021/04/03 06:01:49;;;;;;;52.95;8.13;;;5.50;99.90;;;;;;5051302;28;20053;-59
2021/04/03 06:04:15;;;;;;;53.73;8.43;;;5.60;99.90;;;;;;5051081;28;20144;-60
2021/04/03 06:06:42;;;;;;;56.08;7.63;;;5.60;99.90;;;;;;5051679;28;20064;-60
2021/04/03 06:09:08;;;;;;;44.67;7.72;;;5.60;99.90;;;;;;5051627;28;20125;-60
2021/04/03 06:11:44;;;;;;;54.35;7.57;;;5.60;99.90;;;;;;5051176;28;20136;-59
2021/04/03 06:14:10;;;;;;;61.03;8.95;;;5.70;99.90;;;;;;5051568;28;20099;-59
2021/04/03 06:16:37;;;;;;;47.83;8.27;;;5.70;99.90;;;;;;5050342;28;20049;-61
2021/04/03 06:19:13;;;;;;;39.38;7.72;;;5.70;99.90;;;;;;5051672;28;20087;-60
2021/04/03 06:21:46;;;;;;;57.30;9.57;;;5.80;99.90;;;;;;5053807;28;20053;-65
2021/04/03 06:24:31;;;;;;;55.95;8.93;;;5.80;99.90;;;;;;5053885;28;20548;-62
2021/04/03 06:27:12;;;;;;;42.92;7.97;;;5.90;99.90;;;;;;5052536;28;20053;-61
2021/04/03 06:29:42;;;;;;;56.67;8.05;;;5.90;99.90;;;;;;5051478;28;20064;-59
2021/04/03 06:32:11;;;;;;;50.47;7.55;;;6.00;99.90;;;;;;5050952;28;20045;-60
2021/04/03 06:34:46;;;;;;;52.45;7.38;;;6.00;99.90;;;;;;5050670;28;20060;-60
2021/04/03 06:37:12;;;;;;;40.80;8.10;;;6.00;99.90;;;;;;5049343;28;20453;-60
2021/04/03 06:40:05;;;;;;;56.50;8.30;;;6.00;99.90;;;;;;5050325;28;20052;-59
2021/04/03 06:42:46;;;;;;;50.30;7.20;;;6.10;99.90;;;;;;5044397;28;20049;-58
2021/04/03 06:45:19;;;;;;;48.63;8.27;;;6.10;99.90;;;;;;5035874;28;20049;-61
2021/04/03 06:47:49;;;;;;;58.47;7.63;;;6.10;99.90;;;;;;5031219;28;20456;-59
2021/04/03 06:50:16;;;;;;;40.28;7.60;;;6.20;99.90;;;;;;5031035;28;20041;-59
2021/04/03 06:52:43;;;;;;;54.25;8.00;;;6.30;99.90;;;;;;5031190;28;20503;-60
2021/04/03 06:55:12;;;;;;;44.53;8.07;;;6.30;99.90;;;;;;5031304;28;20052;-60
2021/04/03 06:57:40;;;;;;;44.80;6.70;;;6.30;99.90;;;;;;5030871;28;20067;-59
2021/04/03 07:00:07;;;;;;;45.90;7.07;;;6.30;99.90;;;;;;5031302;28;20062;-59
2021/04/03 07:02:44;;;;;;;42.75;7.85;;;6.40;99.90;;;;;;5031215;28;20050;-60
2021/04/03 07:05:13;;;;;;;46.50;7.22;;;6.50;99.90;;;;;;5031298;28;20072;-59
2021/04/03 07:07:40;;;;;;;43.30;7.35;;;6.60;99.90;;;;;;5046063;28;20349;-60
2021/04/03 07:10:06;;;;;;;62.47;8.50;;;6.70;99.90;;;;;;5034065;28;20433;-58
2021/04/03 07:12:33;;;;;;;44.13;7.82;;;6.60;99.90;;;;;;5038631;28;20033;-59
2021/04/03 07:15:02;;;;;;;46.20;7.93;;;6.60;99.90;;;;;;5030513;28;20069;-60
2021/04/03 07:17:29;;;;;;;45.03;7.88;;;6.70;99.90;;;;;;5030241;28;20077;-59
2021/04/03 07:19:56;;;;;;;46.63;7.80;;;6.70;99.90;;;;;;5030733;28;20622;-59
2021/04/03 07:22:23;;;;;;;41.53;7.20;;;6.70;99.90;;;;;;5029774;28;20092;-59
2021/04/03 07:24:50;;;;;;;42.58;6.57;;;6.80;99.90;;;;;;5029530;28;20085;-60
2021/04/03 07:27:16;;;;;;;45.03;7.47;;;6.80;99.90;;;;;;5030422;28;20072;-58
2021/04/03 07:29:48;;;;;;;38.97;7.77;;;6.90;99.90;;;;;;5030276;28;20492;-59
2021/04/03 07:32:38;;;;;;;42.33;7.28;;;6.80;99.90;;;;;;5031053;28;20038;-60
2021/04/03 07:35:21;;;;;;;46.08;7.50;;;6.90;99.90;;;;;;5020811;28;20504;-65
2021/04/03 07:37:48;;;;;;;43.05;7.22;;;7.00;99.90;;;;;;5029675;28;20208;-61
2021/04/03 07:40:35;;;;;;;41.25;6.80;;;6.90;99.90;;;;;;5045282;28;20052;-58
2021/04/03 07:43:02;;;;;;;40.05;6.72;;;7.00;99.90;;;;;;5037161;28;20049;-60
2021/04/03 07:45:30;;;;;;;41.67;6.97;;;7.00;99.90;;;;;;5045384;28;20065;-60
2021/04/03 07:47:56;;;;;;;34.30;6.72;;;6.90;99.90;;;;;;5045374;28;20045;-59
2021/04/03 07:50:40;;;;;;;46.28;7.55;;;7.00;99.90;;;;;;5029944;28;20049;-59
2021/04/03 07:53:10;;;;;;;48.80;7.65;;;6.90;99.90;;;;;;5029854;28;20140;-59
2021/04/03 07:55:37;;;;;;;41.92;7.20;;;6.80;99.90;;;;;;5029613;28;20072;-59
2021/04/03 07:58:18;;;;;;;49.08;7.00;;;6.80;99.90;;;;;;5029589;28;20037;-59
2021/04/03 08:00:46;;;;;;;41.75;7.32;;;6.70;99.90;;;;;;5029766;28;20049;-58
2021/04/03 08:03:12;;;;;;;48.42;7.40;;;6.70;99.90;;;;;;5029050;28;20068;-59
2021/04/03 08:05:39;;;;;;;49.80;7.27;;;6.70;99.90;;;;;;5029500;28;20493;-61
2021/04/03 08:08:08;;;;;;;45.08;7.93;;;6.80;99.90;;;;;;5029121;28;20041;-61
2021/04/03 08:10:34;;;;;;;45.00;8.48;;;6.90;99.90;;;;;;5029237;28;20111;-59
2021/04/03 08:13:00;;;;;;;46.97;8.57;;;7.10;99.90;;;;;;5028899;28;20469;-59
2021/04/03 08:15:27;;;;;;;47.17;7.70;;;7.10;99.90;;;;;;5028770;28;20041;-60
2021/04/03 08:17:54;;;;;;;41.78;6.55;;;7.30;99.90;;;;;;5029035;28;20057;-60
2021/04/03 08:20:21;;;;;;;37.97;6.00;;;7.50;99.90;;;;;;5029448;28;20137;-59
2021/04/03 08:23:06;;;;;;;41.22;6.38;;;7.50;99.90;;;;;;5034709;28;20703;-60
2021/04/03 08:25:33;;;;;;;43.00;7.15;;;7.50;99.90;;;;;;5042650;28;20183;-61
2021/04/03 08:28:16;;;;;;;46.13;6.88;;;7.40;99.90;;;;;;5048764;28;20658;-59
2021/04/03 08:30:42;;;;;;;42.50;6.68;;;7.50;99.90;;;;;;5049002;28;20053;-59
2021/04/03 08:33:13;;;;;;;34.70;6.20;;;7.40;99.90;;;;;;5048578;28;20055;-61
2021/04/03 08:35:42;;;;;;;47.65;7.65;;;7.50;99.90;;;;;;5048320;28;20808;-60
2021/04/03 08:38:13;;;;;;;41.30;6.95;;;7.50;99.90;;;;;;5047640;28;20469;-60
2021/04/03 08:40:40;;;;;;;47.25;7.75;;;7.50;99.90;;;;;;5047812;28;20056;-59
2021/04/03 08:43:06;;;;;;;34.78;6.55;;;7.60;99.90;;;;;;5047873;28;20049;-59
2021/04/03 08:45:40;;;;;;;35.10;6.65;;;7.60;99.90;;;;;;5048411;28;20567;-59
2021/04/03 08:48:10;;;;;;;42.85;6.53;;;7.70;99.90;;;;;;5048303;28;20045;-60
2021/04/03 08:50:37;;;;;;;35.08;6.70;;;7.90;99.90;;;;;;5048299;28;20048;-60
2021/04/03 08:53:05;;;;;;;34.38;6.90;;;8.10;99.90;;;;;;5048128;28;20114;-58
2021/04/03 08:55:31;;;;;;;37.78;6.35;;;8.30;99.90;;;;;;5048276;28;20052;-60
2021/04/03 08:57:57;;;;;;;43.78;6.78;;;8.20;99.90;;;;;;5048273;28;20124;-60
2021/04/03 09:00:24;;;;;;;37.05;6.63;;;8.30;99.90;;;;;;5048976;28;20073;-60
2021/04/03 09:02:52;;;;;;;43.47;6.80;;;8.10;99.90;;;;;;5048746;28;20114;-59
2021/04/03 09:05:19;;;;;;;38.40;7.53;;;8.10;99.90;;;;;;5048501;28;20044;-59
2021/04/03 09:07:46;;;;;;;42.95;7.40;;;8.20;99.90;;;;;;5048258;28;20138;-61
2021/04/03 09:10:19;;;;;;;29.55;5.82;;;8.40;99.90;;;;;;5048832;28;20057;-60
2021/04/03 09:12:47;;;;;;;30.33;5.80;;;8.40;99.90;;;;;;5047784;28;20168;-58
2021/04/03 09:15:15;;;;;;;40.20;6.43;;;8.40;99.90;;;;;;5047735;28;20045;-60
2021/04/03 09:17:51;;;;;;;38.45;6.07;;;8.20;99.90;;;;;;5047627;28;20484;-60
2021/04/03 09:20:20;;;;;;;35.47;6.93;;;8.30;99.90;;;;;;5047544;28;20041;-61
2021/04/03 09:22:48;;;;;;;41.65;6.53;;;8.30;99.90;;;;;;5047637;28;20048;-60
2021/04/03 09:25:29;;;;;;;34.25;6.57;;;8.30;99.90;;;;;;5047099;28;20484;-59
2021/04/03 09:28:10;;;;;;;31.88;6.10;;;8.40;99.90;;;;;;5047961;28;20039;-60
2021/04/03 09:30:38;;;;;;;33.90;6.35;;;8.60;99.90;;;;;;5047354;28;20037;-61
2021/04/03 09:33:13;;;;;;;34.20;6.55;;;8.60;99.90;;;;;;5047360;28;20045;-61
2021/04/03 09:35:39;;;;;;;33.50;6.10;;;8.60;99.90;;;;;;5042236;28;20048;-61
2021/04/03 09:38:05;;;;;;;34.50;7.37;;;8.70;99.90;;;;;;5028769;28;20061;-61
2021/04/03 09:40:45;;;;;;;44.33;6.70;;;8.60;99.90;;;;;;5027008;28;20488;-60
2021/04/03 09:43:13;;;;;;;36.83;6.18;;;8.80;99.90;;;;;;5039125;28;20059;-62
2021/04/03 09:45:39;;;;;;;34.57;6.70;;;8.80;99.90;;;;;;5048144;28;20094;-67
2021/04/03 09:48:07;;;;;;;38.00;6.00;;;8.80;99.90;;;;;;5046195;28;20303;-67
2021/04/03 09:50:33;;;;;;;35.77;7.20;;;8.80;99.90;;;;;;5051541;28;20284;-67
2021/04/03 09:53:12;;;;;;;33.93;5.63;;;9.00;99.90;;;;;;5049261;28;20299;-64
2021/04/03 09:55:39;;;;;;;36.00;6.33;;;9.20;99.90;;;;;;5046859;28;20298;-64
2021/04/03 09:58:05;;;;;;;22.73;4.83;;;9.50;99.90;;;;;;5046673;28;20382;-64
2021/04/03 10:00:32;;;;;;;29.30;5.63;;;9.30;99.90;;;;;;5054508;28;20326;-63
2021/04/03 10:02:59;;;;;;;35.30;5.80;;;9.20;99.90;;;;;;5051518;28;20350;-64
2021/04/03 10:05:26;;;;;;;28.37;5.13;;;9.20;99.90;;;;;;5062904;28;20841;-63
2021/04/03 10:07:51;;;;;;;31.67;5.67;;;9.20;99.90;;;;;;5063879;28;20294;-63
2021/04/03 10:10:17;;;;;;;27.03;4.90;;;9.10;99.90;;;;;;5057300;28;20822;-63
2021/04/03 10:12:43;;;;;;;31.40;6.07;;;9.10;99.90;;;;;;5058482;28;20051;-62
2021/04/03 10:15:09;;;;;;;28.30;5.73;;;9.20;99.90;;;;;;5037808;28;20046;-59
2021/04/03 10:17:35;;;;;;;33.77;5.70;;;9.20;99.90;;;;;;5047752;28;20387;-60
2021/04/03 10:20:03;;;;;;;33.20;5.57;;;9.30;99.90;;;;;;5028908;28;20386;-60
2021/04/03 10:22:29;;;;;;;34.90;5.53;;;9.40;99.90;;;;;;5029190;28;20387;-60
2021/04/03 10:24:55;;;;;;;38.37;5.67;;;9.70;99.90;;;;;;5032589;28;20410;-60
2021/04/03 10:27:21;;;;;;;40.57;7.53;;;9.60;99.90;;;;;;5047373;28;20072;-59
2021/04/03 10:29:46;;;;;;;33.03;5.37;;;9.40;99.90;;;;;;5045292;28;20123;-60
2021/04/03 10:32:12;;;;;;;32.67;6.23;;;9.40;99.90;;;;;;5035353;28;20955;-59
2021/04/03 10:34:38;;;;;;;34.90;5.90;;;9.60;99.90;;;;;;5043501;28;20128;-60
2021/04/03 10:37:04;;;;;;;31.27;5.53;;;9.70;99.90;;;;;;5029414;28;20060;-60
2021/04/03 10:39:29;;;;;;;36.10;5.20;;;9.70;99.90;;;;;;5046089;28;20041;-59
2021/04/03 10:41:55;;;;;;;29.00;6.00;;;9.70;99.90;;;;;;5047248;28;20488;-60
2021/04/03 10:44:21;;;;;;;30.50;5.27;;;9.90;99.80;;;;;;5047348;28;20052;-58
2021/04/03 10:46:47;;;;;;;30.30;5.53;;;9.80;99.70;;;;;;5032476;28;20478;-63
2021/04/03 10:49:12;;;;;;;33.63;6.43;;;9.70;99.30;;;;;;5031306;28;20092;-63
2021/04/03 10:51:38;;;;;;;28.23;5.70;;;9.80;99.90;;;;;;5042365;28;21003;-63
2021/04/03 10:54:04;;;;;;;30.97;5.07;;;9.90;99.90;;;;;;5041270;28;20049;-63
2021/04/03 10:56:29;;;;;;;31.47;5.77;;;9.90;99.90;;;;;;5031879;28;20140;-63
2021/04/03 10:58:58;;;;;;;28.80;5.63;;;9.80;99.90;;;;;;5031746;28;20052;-63
2021/04/03 11:01:24;;;;;;;38.33;4.90;;;9.80;99.90;;;;;;5047374;28;20053;-62
2021/04/03 11:03:50;;;;;;;25.60;4.67;;;9.80;99.90;;;;;;5033376;28;20315;-62
2021/04/03 11:06:16;;;;;;;29.77;5.10;;;9.70;99.60;;;;;;5053133;28;20045;-63
2021/04/03 11:08:41;;;;;;;21.93;4.30;;;9.80;99.10;;;;;;5055477;28;20306;-62
2021/04/03 11:11:09;;;;;;;26.37;5.47;;;9.80;98.00;;;;;;5056119;28;20567;-62
2021/04/03 11:13:34;;;;;;;24.40;4.80;;;9.80;98.80;;;;;;5055378;28;20099;-63
2021/04/03 11:16:00;;;;;;;31.67;5.30;;;9.80;99.10;;;;;;5053241;28;20307;-62
2021/04/03 11:18:26;;;;;;;28.73;5.43;;;9.80;98.80;;;;;;5049674;28;20094;-63
2021/04/03 11:20:52;;;;;;;25.67;4.60;;;9.90;99.10;;;;;;5033828;28;20311;-61
2021/04/03 11:23:18;;;;;;;28.27;5.37;;;10.10;98.90;;;;;;5043013;28;20076;-60
2021/04/03 11:25:45;;;;;;;21.47;4.13;;;10.10;99.00;;;;;;5029531;28;20119;-60
2021/04/03 11:28:11;;;;;;;25.33;5.07;;;10.00;98.70;;;;;;5029979;28;20136;-62
2021/04/03 11:30:36;;;;;;;25.83;5.10;;;10.00;98.60;;;;;;5037275;28;20383;-59
2021/04/03 11:33:02;;;;;;;25.90;4.73;;;10.10;98.80;;;;;;5038264;28;20467;-61
2021/04/03 11:35:29;;;;;;;21.53;4.17;;;10.10;97.00;;;;;;5030437;28;20064;-66
2021/04/03 11:37:56;;;;;;;21.80;3.80;;;10.20;96.70;;;;;;5028870;28;20130;-66
2021/04/03 11:40:22;;;;;;;25.80;5.27;;;10.30;97.50;;;;;;5029346;28;20398;-66
2021/04/03 11:42:53;;;;;;;26.20;4.97;;;10.40;98.40;;;;;;5048372;28;20410;-66
2021/04/03 11:45:20;;;;;;;23.43;4.97;;;10.30;97.00;;;;;;5047999;28;20083;-66
2021/04/03 11:47:46;;;;;;;22.53;4.30;;;10.20;97.20;;;;;;5055247;28;20385;-64
2021/04/03 11:50:12;;;;;;;22.53;4.03;;;10.30;97.00;;;;;;5057935;28;21127;-62
2021/04/03 11:52:37;;;;;;;20.57;4.67;;;10.30;97.20;;;;;;5055738;28;20036;-62
2021/04/03 11:55:06;;;;;;;28.07;4.90;;;10.40;97.00;;;;;;5061718;28;20299;-62
2021/04/03 11:57:32;;;;;;;23.27;4.60;;;10.50;96.60;;;;;;5056038;28;20116;-61
2021/04/03 11:59:58;;;;;;;27.33;4.93;;;10.50;97.70;;;;;;5054559;28;20323;-63
2021/04/03 12:02:24;;;;;;;29.07;4.63;;;10.50;97.90;;;;;;5053078;28;20469;-60
2021/04/03 12:04:50;;;;;;;30.53;5.63;;;10.80;97.90;;;;;;5048892;28;20041;-58
2021/04/03 12:07:16;;;;;;;28.67;5.03;;;10.70;97.10;;;;;;5047258;28;20308;-59
2021/04/03 12:09:43;;;;;;;25.83;5.40;;;10.70;97.80;;;;;;5047144;28;20300;-61
2021/04/03 12:12:09;;;;;;;29.33;5.63;;;10.80;96.90;;;;;;5048814;28;20044;-61
2021/04/03 12:14:35;;;;;;;24.17;5.00;;;10.90;97.10;;;;;;5048089;28;20382;-60
2021/04/03 12:17:01;;;;;;;21.67;4.30;;;10.90;97.30;;;;;;5049289;28;20703;-64
2021/04/03 12:19:26;;;;;;;26.47;5.03;;;11.00;96.90;;;;;;5048895;28;20389;-60
2021/04/03 12:21:53;;;;;;;24.10;4.50;;;10.80;96.60;;;;;;5053570;28;20303;-62
2021/04/03 12:24:19;;;;;;;28.17;4.93;;;10.50;97.60;;;;;;5071310;28;20036;-63
2021/04/03 12:26:45;;;;;;;18.33;4.40;;;10.50;98.30;;;;;;5072392;28;20317;-63
2021/04/03 12:29:11;;;;;;;20.17;4.13;;;10.50;96.40;;;;;;5072446;28;20093;-61
2021/04/03 12:31:37;;;;;;;26.77;5.20;;;10.70;96.60;;;;;;5071216;28;20318;-63
2021/04/03 12:34:03;;;;;;;18.30;4.00;;;10.80;96.00;;;;;;5072507;28;20049;-63
2021/04/03 12:36:30;;;;;;;24.10;4.97;;;10.70;94.40;;;;;;5072226;28;20424;-64
2021/04/03 12:38:56;;;;;;;19.20;4.10;;;10.60;94.70;;;;;;5071477;28;20124;-64
2021/04/03 12:41:21;;;;;;;25.80;3.83;;;10.50;94.20;;;;;;5069680;28;20302;-67
2021/04/03 12:43:47;;;;;;;17.80;4.20;;;10.70;95.00;;;;;;5058587;28;20503;-67
2021/04/03 12:46:13;;;;;;;24.10;4.70;;;11.00;95.70;;;;;;5055065;28;20125;-65
2021/04/03 12:48:39;;;;;;;25.03;4.30;;;11.00;95.10;;;;;;5063512;28;20291;-64
2021/04/03 12:51:05;;;;;;;21.70;4.07;;;10.90;94.00;;;;;;5067892;28;20081;-63
2021/04/03 12:53:31;;;;;;;19.60;3.80;;;10.90;94.30;;;;;;5069534;28;20287;-65